Portada
METAR-TAF:

METAR-TAF

Aeroports :

Khajuraho, Índia

latitud: 24-49-02N, longitud: 79-55-07E, altitud: 222 m

Observació

L'informe es va fer fa 3 hores i 22 minuts, a les 12:00 UTC
Vent 5 kt del Est/Nord-Est
Temperatura 29°C
Humitat 94%
Pressió 1000 hPa
Visibilitat: 4000 m
Núvols disperses a una alçada de 2000 ft
Núvols disperses a una alçada de 2500 ft
Cel ennuvolat a una alçada de 10000 ft
tempesta, pluja

METAR: VEKO 251200Z 07005KT 4000 -TSRA SCT020 SCT025 FEWCB030 BKN100 29/28 Q1000

Hora: 20:52 (15:22 UTC)

Pronòstic

L'informe es va fer fa 1 hora i 22 minuts, a les 14:00 UTC
Pronòstic vàlid del 25 a les 15 UTC al 25 a les 24 UTC
Vent 8 kt del Nord-Est
Visibilitat: 3000 m
Núvols disperses a una alçada de 1200 ft
Núvols disperses a una alçada de 2000 ft
Cel ennuvolat a una alçada de 10000 ft
pluja, calitja

TAF: VEKO 251400Z 2515/2524 05008KT 3000 -RA HZ SCT012 SCT020 BKN100

Observacions i pronòstics meteorològics de més de 4000 aeroports (METAR i TAF).

Les estacions disponibles són els punts grocs i vermells al mapa.

Posi el ratolí al punt desitjat per veure el nom de l'estació.

Feu clic per veure les observacions i els pronòstics meteorològics.

Per canviar el mapa: feu clic els botons verds amb una creu de color negre per apropar; al botó verd amb un guió per allunyar la imatge; o en les fletxes verdes per a mapes adjacents.


METAR-TAF: